UAL55 DFFD-DXXX
Flight info
| Callsign | UAL55 |
|---|---|
| Flight time | 1h 4m |
| Altitude | 35000 |
| Route | UMOVO1N UMOVO UR983 AMSOM AMSOM1L |
| Aircraft | B738/M-SDE2E3FGHIRWXY/LB1 |
Departure
| Time | 2026-04-23 02:11 |
|---|---|
| Airport | Ouagadougou Thomas Sankara International Airport (DFFD) |
Arrival
| Time | 2026-04-23 03:16 |
|---|---|
| Airport | Lomé–Tokoin International Airport (DXXX) |
| Time | Latitude | Longitude | Altitude | Speed | Heading |
|---|---|---|---|---|---|
| 2026-04-23 02:01 | 12.35409 | -1.51390 | 1021 ft | 0 kts | 258° |
| 2026-04-23 02:07 | 12.35396 | -1.51398 | 1021 ft | 8 kts | 208° |
| 2026-04-23 02:08 | 12.35315 | -1.51435 | 1023 ft | 12 kts | 199° |
| 2026-04-23 02:08 | 12.35236 | -1.51464 | 1025 ft | 11 kts | 202° |
| 2026-04-23 02:08 | 12.35178 | -1.51497 | 1027 ft | 8 kts | 213° |
| 2026-04-23 02:08 | 12.35120 | -1.51537 | 1029 ft | 10 kts | 214° |
| 2026-04-23 02:09 | 12.35037 | -1.51537 | 1030 ft | 15 kts | 139° |
| 2026-04-23 02:09 | 12.34961 | -1.51479 | 1031 ft | 12 kts | 194° |
| 2026-04-23 02:09 | 12.34860 | -1.51542 | 1034 ft | 24 kts | 214° |
| 2026-04-23 02:09 | 12.34692 | -1.51654 | 1039 ft | 28 kts | 214° |
| 2026-04-23 02:10 | 12.34531 | -1.51761 | 1042 ft | 26 kts | 213° |
| 2026-04-23 02:10 | 12.34383 | -1.51861 | 1045 ft | 24 kts | 214° |
| 2026-04-23 02:10 | 12.34253 | -1.51963 | 1043 ft | 17 kts | 247° |
| 2026-04-23 02:10 | 12.34199 | -1.51984 | 1043 ft | 11 kts | 73° |
| 2026-04-23 02:11 | 12.34285 | -1.51922 | 1044 ft | 37 kts | 33° |
| 2026-04-23 02:11 | 12.34772 | -1.51602 | 1038 ft | 125 kts | 32° |
| 2026-04-23 02:11 | 12.35724 | -1.50972 | 1051 ft | 192 kts | 31° |
| 2026-04-23 02:11 | 12.36925 | -1.50207 | 1653 ft | 208 kts | 36° |
| 2026-04-23 02:12 | 12.38182 | -1.49307 | 2316 ft | 230 kts | 33° |
| 2026-04-23 02:12 | 12.39522 | -1.48404 | 3118 ft | 236 kts | 32° |
| 2026-04-23 02:12 | 12.40842 | -1.47526 | 4382 ft | 230 kts | 35° |
| 2026-04-23 02:12 | 12.41863 | -1.46306 | 5350 ft | 237 kts | 65° |
| 2026-04-23 02:13 | 12.42175 | -1.44596 | 5824 ft | 267 kts | 92° |
| 2026-04-23 02:13 | 12.41651 | -1.42709 | 5888 ft | 281 kts | 118° |
| 2026-04-23 02:13 | 12.40335 | -1.41243 | 5892 ft | 281 kts | 142° |
| 2026-04-23 02:13 | 12.38841 | -1.39969 | 5900 ft | 279 kts | 133° |
| 2026-04-23 02:14 | 12.37472 | -1.38570 | 5891 ft | 278 kts | 131° |
| 2026-04-23 02:14 | 12.36148 | -1.37144 | 5887 ft | 277 kts | 131° |
| 2026-04-23 02:14 | 12.34816 | -1.35696 | 5889 ft | 275 kts | 130° |
| 2026-04-23 02:14 | 12.33517 | -1.34272 | 5890 ft | 276 kts | 131° |
| 2026-04-23 02:15 | 12.30889 | -1.31399 | 5898 ft | 276 kts | 131° |
| 2026-04-23 02:15 | 12.29577 | -1.29961 | 5897 ft | 276 kts | 131° |
| 2026-04-23 02:15 | 12.28259 | -1.28535 | 5893 ft | 276 kts | 136° |
| 2026-04-23 02:16 | 12.26555 | -1.27518 | 6123 ft | 297 kts | 154° |
| 2026-04-23 02:16 | 12.24711 | -1.26651 | 7488 ft | 293 kts | 154° |
| 2026-04-23 02:16 | 12.22961 | -1.25840 | 9021 ft | 279 kts | 154° |
| 2026-04-23 02:16 | 12.21176 | -1.25011 | 10053 ft | 285 kts | 154° |
| 2026-04-23 02:17 | 12.19344 | -1.24164 | 10833 ft | 299 kts | 154° |
| 2026-04-23 02:17 | 12.17385 | -1.23254 | 11533 ft | 316 kts | 154° |
| 2026-04-23 02:17 | 12.15358 | -1.22317 | 12178 ft | 332 kts | 154° |
| 2026-04-23 02:17 | 12.13185 | -1.21310 | 12838 ft | 348 kts | 154° |
| 2026-04-23 02:18 | 12.10987 | -1.20292 | 13891 ft | 348 kts | 154° |
| 2026-04-23 02:18 | 12.08797 | -1.19274 | 14812 ft | 352 kts | 155° |
| 2026-04-23 02:18 | 12.06535 | -1.18227 | 15544 ft | 360 kts | 155° |
| 2026-04-23 02:18 | 12.04231 | -1.17160 | 16409 ft | 363 kts | 156° |
| 2026-04-23 02:19 | 12.01941 | -1.16101 | 17272 ft | 365 kts | 156° |
| 2026-04-23 02:19 | 11.99586 | -1.15070 | 17885 ft | 372 kts | 162° |
| 2026-04-23 02:19 | 11.97053 | -1.14405 | 18468 ft | 379 kts | 166° |
| 2026-04-23 02:19 | 11.94496 | -1.13749 | 19259 ft | 380 kts | 166° |
| 2026-04-23 02:20 | 11.91906 | -1.13086 | 19700 ft | 391 kts | 167° |
| 2026-04-23 02:20 | 11.89225 | -1.12394 | 20382 ft | 394 kts | 167° |
| 2026-04-23 02:20 | 11.86575 | -1.11712 | 20962 ft | 399 kts | 167° |
| 2026-04-23 02:20 | 11.83831 | -1.11008 | 21420 ft | 407 kts | 167° |
| 2026-04-23 02:21 | 11.81112 | -1.10308 | 22049 ft | 408 kts | 167° |
| 2026-04-23 02:21 | 11.78322 | -1.09592 | 22494 ft | 415 kts | 167° |
| 2026-04-23 02:21 | 11.75480 | -1.08860 | 22982 ft | 420 kts | 168° |
| 2026-04-23 02:21 | 11.72651 | -1.08130 | 23478 ft | 425 kts | 168° |
| 2026-04-23 02:22 | 11.69734 | -1.07381 | 23861 ft | 432 kts | 168° |
| 2026-04-23 02:22 | 11.66827 | -1.06635 | 24384 ft | 434 kts | 168° |
| 2026-04-23 02:22 | 11.63864 | -1.05873 | 24816 ft | 439 kts | 169° |
| 2026-04-23 02:22 | 11.60867 | -1.05102 | 25178 ft | 445 kts | 169° |
| 2026-04-23 02:23 | 11.57885 | -1.04337 | 25658 ft | 447 kts | 169° |
| 2026-04-23 02:23 | 11.54851 | -1.03557 | 26034 ft | 452 kts | 169° |
| 2026-04-23 02:23 | 11.51782 | -1.02772 | 26396 ft | 457 kts | 169° |
| 2026-04-23 02:23 | 11.48688 | -1.01978 | 26791 ft | 460 kts | 170° |
| 2026-04-23 02:24 | 11.45531 | -1.01167 | 27106 ft | 465 kts | 170° |
| 2026-04-23 02:24 | 11.42388 | -1.00361 | 27487 ft | 468 kts | 170° |
| 2026-04-23 02:24 | 11.39234 | -0.99552 | 27866 ft | 471 kts | 170° |
| 2026-04-23 02:24 | 11.36009 | -0.98727 | 28131 ft | 476 kts | 170° |
| 2026-04-23 02:25 | 11.32783 | -0.97899 | 28548 ft | 477 kts | 170° |
| 2026-04-23 02:25 | 11.29567 | -0.97073 | 29165 ft | 473 kts | 170° |
| 2026-04-23 02:25 | 11.26382 | -0.96257 | 29717 ft | 471 kts | 170° |
| 2026-04-23 02:25 | 11.23223 | -0.95451 | 30057 ft | 473 kts | 170° |
| 2026-04-23 02:26 | 11.20000 | -0.94625 | 30486 ft | 473 kts | 170° |
| 2026-04-23 02:26 | 11.16844 | -0.93813 | 31080 ft | 469 kts | 171° |
| 2026-04-23 02:26 | 11.13681 | -0.93005 | 31634 ft | 465 kts | 171° |
| 2026-04-23 02:26 | 11.10509 | -0.92193 | 31986 ft | 466 kts | 171° |
| 2026-04-23 02:27 | 11.07375 | -0.91392 | 32400 ft | 465 kts | 171° |
| 2026-04-23 02:27 | 11.04254 | -0.90594 | 32894 ft | 463 kts | 171° |
| 2026-04-23 02:27 | 11.01139 | -0.89788 | 33315 ft | 463 kts | 168° |
| 2026-04-23 02:27 | 10.98109 | -0.88520 | 33765 ft | 468 kts | 156° |
| 2026-04-23 02:28 | 10.95219 | -0.87013 | 34381 ft | 463 kts | 157° |
| 2026-04-23 02:28 | 10.92398 | -0.85549 | 34860 ft | 455 kts | 157° |
| 2026-04-23 02:28 | 10.89549 | -0.84072 | 34876 ft | 460 kts | 157° |
| 2026-04-23 02:29 | 10.83752 | -0.81060 | 34883 ft | 476 kts | 157° |
| 2026-04-23 02:29 | 10.77742 | -0.77936 | 34879 ft | 493 kts | 157° |
| 2026-04-23 02:30 | 10.71532 | -0.74709 | 34877 ft | 500 kts | 157° |
| 2026-04-23 02:30 | 10.65375 | -0.71514 | 34872 ft | 495 kts | 156° |
| 2026-04-23 02:31 | 10.59261 | -0.68339 | 34875 ft | 494 kts | 156° |
| 2026-04-23 02:31 | 10.53117 | -0.65153 | 34875 ft | 495 kts | 156° |
| 2026-04-23 02:32 | 10.46950 | -0.61955 | 34874 ft | 495 kts | 157° |
| 2026-04-23 02:32 | 10.40808 | -0.58773 | 34873 ft | 496 kts | 156° |
| 2026-04-23 02:33 | 10.34690 | -0.55602 | 34873 ft | 495 kts | 157° |
| 2026-04-23 02:33 | 10.28563 | -0.52430 | 34864 ft | 494 kts | 157° |
| 2026-04-23 02:34 | 10.22441 | -0.49261 | 34864 ft | 494 kts | 156° |
| 2026-04-23 02:34 | 10.16259 | -0.46065 | 34855 ft | 496 kts | 156° |
| 2026-04-23 02:35 | 10.10137 | -0.42911 | 34854 ft | 493 kts | 159° |
| 2026-04-23 02:35 | 10.03904 | -0.39950 | 34865 ft | 493 kts | 159° |
| 2026-04-23 02:36 | 9.97677 | -0.36980 | 34869 ft | 493 kts | 159° |
| 2026-04-23 02:36 | 9.91501 | -0.34032 | 34863 ft | 492 kts | 159° |
| 2026-04-23 02:37 | 9.85292 | -0.31069 | 34870 ft | 492 kts | 159° |
| 2026-04-23 02:37 | 9.79073 | -0.28104 | 34868 ft | 491 kts | 158° |
| 2026-04-23 02:38 | 9.72915 | -0.25166 | 34863 ft | 490 kts | 158° |
| 2026-04-23 02:38 | 9.66709 | -0.22208 | 34863 ft | 491 kts | 158° |
| 2026-04-23 02:39 | 9.60508 | -0.19256 | 34858 ft | 490 kts | 158° |
| 2026-04-23 02:39 | 9.54348 | -0.16323 | 34856 ft | 491 kts | 158° |
| 2026-04-23 02:40 | 9.48152 | -0.13372 | 34852 ft | 489 kts | 158° |
| 2026-04-23 02:40 | 9.41984 | -0.10438 | 34854 ft | 491 kts | 158° |
| 2026-04-23 02:41 | 9.35801 | -0.07499 | 34852 ft | 489 kts | 158° |
| 2026-04-23 02:41 | 9.29650 | -0.04575 | 34850 ft | 487 kts | 158° |
| 2026-04-23 02:42 | 9.23496 | -0.01650 | 34850 ft | 487 kts | 158° |
| 2026-04-23 02:42 | 9.20469 | -0.00208 | 34838 ft | 474 kts | 158° |
| 2026-04-23 02:42 | 9.17530 | 0.01192 | 34834 ft | 452 kts | 158° |
| 2026-04-23 02:42 | 9.14724 | 0.02524 | 34831 ft | 440 kts | 158° |
| 2026-04-23 02:43 | 9.11944 | 0.03842 | 34853 ft | 444 kts | 158° |
| 2026-04-23 02:43 | 9.06285 | 0.06531 | 34849 ft | 456 kts | 158° |
| 2026-04-23 02:44 | 9.00536 | 0.09261 | 34852 ft | 453 kts | 158° |
| 2026-04-23 02:44 | 8.94859 | 0.11958 | 34854 ft | 450 kts | 158° |
| 2026-04-23 02:45 | 8.89183 | 0.14652 | 34864 ft | 449 kts | 158° |
| 2026-04-23 02:45 | 8.83536 | 0.17331 | 34864 ft | 448 kts | 158° |
| 2026-04-23 02:46 | 8.77886 | 0.20011 | 34862 ft | 446 kts | 158° |
| 2026-04-23 02:46 | 8.72255 | 0.22681 | 34862 ft | 446 kts | 158° |
| 2026-04-23 02:47 | 8.66629 | 0.25348 | 34864 ft | 445 kts | 158° |
| 2026-04-23 02:47 | 8.61026 | 0.28004 | 34864 ft | 444 kts | 158° |
| 2026-04-23 02:48 | 8.55420 | 0.30659 | 34868 ft | 442 kts | 158° |
| 2026-04-23 02:48 | 8.49855 | 0.33296 | 34870 ft | 442 kts | 158° |
| 2026-04-23 02:49 | 8.44288 | 0.35927 | 34871 ft | 442 kts | 157° |
| 2026-04-23 02:49 | 8.38725 | 0.38562 | 34875 ft | 441 kts | 157° |
| 2026-04-23 02:50 | 8.33157 | 0.41196 | 34876 ft | 440 kts | 157° |
| 2026-04-23 02:50 | 8.27618 | 0.43815 | 34881 ft | 440 kts | 157° |
| 2026-04-23 02:51 | 8.22078 | 0.46437 | 34880 ft | 439 kts | 157° |
| 2026-04-23 02:51 | 8.16525 | 0.49060 | 34890 ft | 438 kts | 157° |
| 2026-04-23 02:52 | 8.10980 | 0.51678 | 34898 ft | 439 kts | 157° |
| 2026-04-23 02:52 | 8.05449 | 0.54291 | 34899 ft | 438 kts | 156° |
| 2026-04-23 02:53 | 7.99896 | 0.56797 | 34899 ft | 435 kts | 162° |
| 2026-04-23 02:53 | 7.94163 | 0.58888 | 34904 ft | 437 kts | 161° |
| 2026-04-23 02:54 | 7.88456 | 0.61004 | 34892 ft | 436 kts | 161° |
| 2026-04-23 02:54 | 7.82756 | 0.63120 | 34877 ft | 435 kts | 161° |
| 2026-04-23 02:54 | 7.79936 | 0.64165 | 34134 ft | 434 kts | 161° |
| 2026-04-23 02:55 | 7.77104 | 0.65218 | 32660 ft | 449 kts | 162° |
| 2026-04-23 02:55 | 7.74123 | 0.66321 | 31236 ft | 467 kts | 162° |
| 2026-04-23 02:55 | 7.71046 | 0.67464 | 30054 ft | 477 kts | 162° |
| 2026-04-23 02:55 | 7.67959 | 0.68608 | 29819 ft | 465 kts | 162° |
| 2026-04-23 02:56 | 7.64935 | 0.69730 | 29451 ft | 458 kts | 162° |
| 2026-04-23 02:56 | 7.61926 | 0.70844 | 28440 ft | 468 kts | 162° |
| 2026-04-23 02:56 | 7.58867 | 0.71979 | 27970 ft | 462 kts | 162° |
| 2026-04-23 02:56 | 7.55857 | 0.73092 | 27427 ft | 461 kts | 161° |
| 2026-04-23 02:57 | 7.52838 | 0.74207 | 26767 ft | 461 kts | 161° |
| 2026-04-23 02:57 | 7.49851 | 0.75317 | 26523 ft | 451 kts | 161° |
| 2026-04-23 02:57 | 7.46931 | 0.76397 | 26061 ft | 447 kts | 160° |
| 2026-04-23 02:57 | 7.44011 | 0.77479 | 25557 ft | 444 kts | 160° |
| 2026-04-23 02:58 | 7.41134 | 0.78545 | 25245 ft | 436 kts | 160° |
| 2026-04-23 02:58 | 7.38296 | 0.79595 | 24789 ft | 433 kts | 160° |
| 2026-04-23 02:58 | 7.35477 | 0.80640 | 24451 ft | 426 kts | 160° |
| 2026-04-23 02:58 | 7.32703 | 0.81666 | 23958 ft | 424 kts | 159° |
| 2026-04-23 02:59 | 7.29959 | 0.82680 | 23664 ft | 416 kts | 159° |
| 2026-04-23 02:59 | 7.27267 | 0.83679 | 23282 ft | 412 kts | 159° |
| 2026-04-23 02:59 | 7.24555 | 0.84681 | 22890 ft | 407 kts | 159° |
| 2026-04-23 02:59 | 7.21944 | 0.85648 | 22481 ft | 403 kts | 158° |
| 2026-04-23 03:00 | 7.19305 | 0.86623 | 22121 ft | 398 kts | 158° |
| 2026-04-23 03:00 | 7.16716 | 0.87582 | 21736 ft | 395 kts | 158° |
| 2026-04-23 03:00 | 7.14118 | 0.88545 | 21270 ft | 394 kts | 158° |
| 2026-04-23 03:00 | 7.11560 | 0.89493 | 20891 ft | 391 kts | 158° |
| 2026-04-23 03:01 | 7.09015 | 0.90434 | 20489 ft | 389 kts | 158° |
| 2026-04-23 03:01 | 7.06476 | 0.91373 | 20122 ft | 386 kts | 158° |
| 2026-04-23 03:01 | 7.03963 | 0.92303 | 19736 ft | 384 kts | 158° |
| 2026-04-23 03:01 | 7.01440 | 0.93234 | 19352 ft | 382 kts | 158° |
| 2026-04-23 03:02 | 6.98956 | 0.94152 | 18978 ft | 379 kts | 158° |
| 2026-04-23 03:02 | 6.96475 | 0.95070 | 18627 ft | 377 kts | 158° |
| 2026-04-23 03:02 | 6.94045 | 0.95970 | 18258 ft | 375 kts | 158° |
| 2026-04-23 03:02 | 6.91587 | 0.96876 | 17861 ft | 374 kts | 158° |
| 2026-04-23 03:03 | 6.89128 | 0.97785 | 17542 ft | 371 kts | 158° |
| 2026-04-23 03:03 | 6.86712 | 0.98676 | 17196 ft | 369 kts | 158° |
| 2026-04-23 03:03 | 6.84300 | 0.99566 | 16805 ft | 368 kts | 158° |
| 2026-04-23 03:03 | 6.81905 | 1.00449 | 16518 ft | 364 kts | 157° |
| 2026-04-23 03:04 | 6.79550 | 1.01318 | 16185 ft | 363 kts | 157° |
| 2026-04-23 03:04 | 6.77163 | 1.02199 | 15784 ft | 363 kts | 157° |
| 2026-04-23 03:04 | 6.74784 | 1.03079 | 15518 ft | 359 kts | 157° |
| 2026-04-23 03:04 | 6.72466 | 1.03936 | 15163 ft | 359 kts | 156° |
| 2026-04-23 03:05 | 6.70113 | 1.04804 | 14795 ft | 358 kts | 156° |
| 2026-04-23 03:05 | 6.67777 | 1.05663 | 14566 ft | 354 kts | 156° |
| 2026-04-23 03:05 | 6.65465 | 1.06519 | 14270 ft | 352 kts | 156° |
| 2026-04-23 03:05 | 6.63185 | 1.07357 | 14248 ft | 341 kts | 156° |
| 2026-04-23 03:06 | 6.60981 | 1.08176 | 14236 ft | 331 kts | 155° |
| 2026-04-23 03:06 | 6.58897 | 1.09035 | 14199 ft | 319 kts | 146° |
| 2026-04-23 03:06 | 6.57203 | 1.10391 | 14178 ft | 304 kts | 129° |
| 2026-04-23 03:06 | 6.55778 | 1.11988 | 13966 ft | 304 kts | 128° |
| 2026-04-23 03:07 | 6.54390 | 1.13575 | 13728 ft | 305 kts | 127° |
| 2026-04-23 03:07 | 6.52978 | 1.15195 | 13217 ft | 309 kts | 127° |
| 2026-04-23 03:07 | 6.51581 | 1.16807 | 12677 ft | 306 kts | 127° |
| 2026-04-23 03:07 | 6.50186 | 1.18416 | 11918 ft | 308 kts | 127° |
| 2026-04-23 03:08 | 6.48801 | 1.20013 | 11150 ft | 302 kts | 126° |
| 2026-04-23 03:08 | 6.47441 | 1.21578 | 10380 ft | 294 kts | 126° |
| 2026-04-23 03:08 | 6.46119 | 1.23101 | 9610 ft | 288 kts | 126° |
| 2026-04-23 03:08 | 6.44820 | 1.24602 | 8844 ft | 283 kts | 126° |
| 2026-04-23 03:09 | 6.43552 | 1.26065 | 8110 ft | 276 kts | 126° |
| 2026-04-23 03:09 | 6.42312 | 1.27497 | 7378 ft | 269 kts | 126° |
| 2026-04-23 03:09 | 6.41090 | 1.28906 | 6606 ft | 264 kts | 127° |
| 2026-04-23 03:09 | 6.39901 | 1.30277 | 5879 ft | 258 kts | 127° |
| 2026-04-23 03:10 | 6.38748 | 1.31608 | 5125 ft | 254 kts | 128° |
| 2026-04-23 03:10 | 6.37591 | 1.32941 | 4379 ft | 248 kts | 129° |
| 2026-04-23 03:10 | 6.36481 | 1.34224 | 3617 ft | 245 kts | 131° |
| 2026-04-23 03:10 | 6.35382 | 1.35494 | 2952 ft | 238 kts | 132° |
| 2026-04-23 03:11 | 6.34138 | 1.36518 | 2374 ft | 229 kts | 155° |
| 2026-04-23 03:11 | 6.32635 | 1.36863 | 2001 ft | 210 kts | 184° |
| 2026-04-23 03:11 | 6.31306 | 1.36582 | 1966 ft | 182 kts | 203° |
| 2026-04-23 03:11 | 6.30220 | 1.36029 | 1999 ft | 171 kts | 211° |
| 2026-04-23 03:12 | 6.29204 | 1.35364 | 2023 ft | 179 kts | 215° |
| 2026-04-23 03:12 | 6.28189 | 1.34626 | 1994 ft | 177 kts | 217° |
| 2026-04-23 03:12 | 6.27212 | 1.33875 | 1987 ft | 169 kts | 218° |
| 2026-04-23 03:12 | 6.26376 | 1.33224 | 1954 ft | 136 kts | 219° |
| 2026-04-23 03:13 | 6.25661 | 1.32661 | 1981 ft | 131 kts | 219° |
| 2026-04-23 03:13 | 6.24924 | 1.32068 | 1883 ft | 138 kts | 221° |
| 2026-04-23 03:13 | 6.24186 | 1.31454 | 1692 ft | 135 kts | 220° |
| 2026-04-23 03:13 | 6.23453 | 1.30860 | 1500 ft | 136 kts | 219° |
| 2026-04-23 03:14 | 6.22715 | 1.30271 | 1323 ft | 136 kts | 219° |
| 2026-04-23 03:14 | 6.21981 | 1.29689 | 1147 ft | 135 kts | 219° |
| 2026-04-23 03:14 | 6.21239 | 1.29100 | 967 ft | 136 kts | 219° |
| 2026-04-23 03:14 | 6.20487 | 1.28505 | 789 ft | 136 kts | 219° |
| 2026-04-23 03:15 | 6.19742 | 1.27916 | 612 ft | 136 kts | 219° |
| 2026-04-23 03:15 | 6.18992 | 1.27322 | 437 ft | 136 kts | 219° |
| 2026-04-23 03:15 | 6.18244 | 1.26730 | 262 ft | 137 kts | 219° |
| 2026-04-23 03:15 | 6.17483 | 1.26132 | 93 ft | 132 kts | 218° |
| 2026-04-23 03:16 | 6.16852 | 1.25637 | 73 ft | 85 kts | 219° |
| 2026-04-23 03:16 | 6.16628 | 1.25418 | 74 ft | 17 kts | 279° |
| 2026-04-23 03:16 | 6.16809 | 1.25389 | 76 ft | 17 kts | 41° |
| 2026-04-23 03:17 | 6.16908 | 1.25471 | 77 ft | 10 kts | 37° |
| 2026-04-23 03:17 | 6.16954 | 1.25469 | 77 ft | 9 kts | 308° |
| 2026-04-23 03:17 | 6.16997 | 1.25415 | 78 ft | 8 kts | 309° |
| 2026-04-23 03:17 | 6.17001 | 1.25410 | 78 ft | 0 kts | 308° |